Time;durP1;ratioP1;P1;durP2;ratioP2;P2;SDS_P1;SDS_P2;PMS_P1;PMS_P2;Temp;Humidity;BMP_temperature;BMP_pressure;BME280_temperature;BME280_humidity;BME280_pressure;Samples;Min_cycle;Max_cycle;Signal;HPM_P1;HPM_P2
2023/12/14 00:02:00;;;;;;;11.43;7.10;;;7.00;99.90;;;;;;5044149;28;20101;-83
2023/12/14 00:04:26;;;;;;;13.45;8.98;;;7.00;99.90;;;;;;5045277;28;20029;-83
2023/12/14 00:06:51;;;;;;;9.02;6.05;;;7.00;99.90;;;;;;5045944;28;20025;-82
2023/12/14 00:09:17;;;;;;;12.93;8.95;;;7.00;99.90;;;;;;5047326;28;20018;-81
2023/12/14 00:11:43;;;;;;;16.63;11.20;;;7.00;99.90;;;;;;5043198;28;20397;-81
2023/12/14 00:14:08;;;;;;;16.20;10.75;;;6.90;99.90;;;;;;5044143;28;20033;-82
2023/12/14 00:16:34;;;;;;;17.00;11.02;;;6.80;99.90;;;;;;5047215;28;20401;-82
2023/12/14 00:19:00;;;;;;;16.30;9.93;;;6.80;99.90;;;;;;5041934;28;20036;-83
2023/12/14 00:21:26;;;;;;;12.93;8.77;;;6.80;99.90;;;;;;5040691;28;20021;-81
2023/12/14 00:23:51;;;;;;;15.20;10.15;;;6.80;99.90;;;;;;5043063;28;20049;-84
2023/12/14 00:26:17;;;;;;;17.27;10.73;;;6.80;99.90;;;;;;5077339;28;20429;-82
2023/12/14 00:28:43;;;;;;;20.13;12.60;;;6.70;99.90;;;;;;5046748;28;20547;-84
2023/12/14 00:31:09;;;;;;;17.45;11.65;;;6.70;99.90;;;;;;5040502;28;20045;-83
2023/12/14 00:33:35;;;;;;;16.63;10.65;;;6.70;99.90;;;;;;5062312;28;20041;-82
2023/12/14 00:36:00;;;;;;;17.38;11.05;;;6.70;99.90;;;;;;5077760;28;20021;-83
2023/12/14 00:38:26;;;;;;;18.20;11.20;;;6.70;99.90;;;;;;5044068;28;20029;-84
2023/12/14 00:40:51;;;;;;;24.00;14.88;;;6.70;99.90;;;;;;5048302;28;20029;-82
2023/12/14 00:43:17;;;;;;;19.42;11.65;;;6.60;99.90;;;;;;5042833;28;20107;-83
2023/12/14 00:45:43;;;;;;;22.60;14.25;;;6.60;99.90;;;;;;5045347;28;20021;-83
2023/12/14 00:48:09;;;;;;;21.40;13.82;;;6.60;99.90;;;;;;5047719;28;20025;-82
2023/12/14 00:50:34;;;;;;;20.33;12.60;;;6.60;99.90;;;;;;5037874;28;20036;-82
2023/12/14 00:53:00;;;;;;;19.65;12.43;;;6.60;99.90;;;;;;5045632;28;20053;-82
2023/12/14 00:55:26;;;;;;;17.67;11.02;;;6.60;99.90;;;;;;5063222;28;20649;-82
2023/12/14 00:57:51;;;;;;;22.75;14.52;;;6.60;99.90;;;;;;5046497;28;20048;-82
2023/12/14 01:00:18;;;;;;;21.98;13.60;;;6.60;99.90;;;;;;5042652;28;20087;-82
2023/12/14 01:02:44;;;;;;;22.02;13.05;;;6.60;99.90;;;;;;5044175;28;20029;-82
2023/12/14 01:05:09;;;;;;;19.20;11.77;;;6.60;99.90;;;;;;5044672;28;20025;-82
2023/12/14 01:07:35;;;;;;;19.15;12.40;;;6.50;99.90;;;;;;5045266;28;20416;-82
2023/12/14 01:10:01;;;;;;;24.45;16.13;;;6.50;99.90;;;;;;5044142;28;20482;-81
2023/12/14 01:12:27;;;;;;;19.63;12.10;;;6.50;99.90;;;;;;5037867;28;20087;-81
2023/12/14 01:14:53;;;;;;;20.00;12.75;;;6.50;99.90;;;;;;5047747;28;20378;-82
2023/12/14 01:17:18;;;;;;;22.63;14.73;;;6.50;99.90;;;;;;5044652;28;20025;-82
2023/12/14 01:19:44;;;;;;;24.67;14.95;;;6.40;99.90;;;;;;5046749;28;20049;-82
2023/12/14 01:22:10;;;;;;;23.90;15.68;;;6.40;99.90;;;;;;5057517;28;20021;-80
2023/12/14 01:24:35;;;;;;;21.63;13.68;;;6.40;99.90;;;;;;5064676;28;20025;-82
2023/12/14 01:27:01;;;;;;;19.30;12.70;;;6.40;99.90;;;;;;5032879;28;20033;-82
2023/12/14 01:29:27;;;;;;;16.85;10.60;;;6.40;99.90;;;;;;5039132;28;20459;-82
2023/12/14 01:31:53;;;;;;;14.63;9.23;;;6.40;99.90;;;;;;5062276;28;20033;-82
2023/12/14 01:34:18;;;;;;;16.13;9.45;;;6.40;99.90;;;;;;5051055;28;20071;-84
2023/12/14 01:36:44;;;;;;;19.73;11.95;;;6.40;99.90;;;;;;5048320;28;20052;-82
2023/12/14 01:39:10;;;;;;;15.98;9.85;;;6.40;99.90;;;;;;5050375;28;20024;-82
2023/12/14 01:41:35;;;;;;;14.98;8.18;;;6.40;99.90;;;;;;5049579;28;20021;-84
2023/12/14 01:44:01;;;;;;;17.23;10.02;;;6.40;99.90;;;;;;5050639;28;20032;-82
2023/12/14 01:46:27;;;;;;;12.70;8.02;;;6.40;99.90;;;;;;5044974;28;20021;-82
2023/12/14 01:48:52;;;;;;;13.98;8.50;;;6.40;99.90;;;;;;5049165;28;20112;-82
2023/12/14 01:51:19;;;;;;;10.27;6.22;;;6.40;99.90;;;;;;5050234;28;20028;-81
2023/12/14 01:53:44;;;;;;;11.82;7.43;;;6.40;99.90;;;;;;5046110;28;20452;-82
2023/12/14 01:56:10;;;;;;;12.88;7.70;;;6.30;99.90;;;;;;5080130;28;20021;-82
2023/12/14 01:58:36;;;;;;;14.68;8.68;;;6.40;99.90;;;;;;5079346;28;20477;-83
2023/12/14 02:01:04;;;;;;;11.52;6.28;;;6.40;99.90;;;;;;5050030;28;20029;-84
2023/12/14 02:03:30;;;;;;;17.88;10.98;;;6.40;99.90;;;;;;5050719;28;20025;-83
2023/12/14 02:05:57;;;;;;;18.70;11.50;;;6.30;99.90;;;;;;5050210;28;20063;-83
2023/12/14 02:08:24;;;;;;;18.17;12.15;;;6.30;99.90;;;;;;5062987;28;20456;-83
2023/12/14 02:10:50;;;;;;;15.93;10.88;;;6.20;99.90;;;;;;5050744;28;20051;-82
2023/12/14 02:13:16;;;;;;;14.35;9.27;;;6.30;99.90;;;;;;5049854;28;20025;-84
2023/12/14 02:15:42;;;;;;;16.13;10.13;;;6.20;99.90;;;;;;5065291;28;20033;-82
2023/12/14 02:18:07;;;;;;;11.05;7.13;;;6.20;99.90;;;;;;5048242;28;20054;-82
2023/12/14 02:20:33;;;;;;;14.02;8.30;;;6.20;99.90;;;;;;5050320;28;20021;-82
2023/12/14 02:22:59;;;;;;;11.38;7.25;;;6.20;99.90;;;;;;5030356;28;20466;-83
2023/12/14 02:25:24;;;;;;;12.25;6.80;;;6.20;99.90;;;;;;5042024;28;20040;-84
2023/12/14 02:27:51;;;;;;;14.40;8.18;;;6.20;99.90;;;;;;5066505;28;20485;-84
2023/12/14 02:30:18;;;;;;;14.40;8.25;;;6.20;99.90;;;;;;5048374;28;20056;-84
2023/12/14 02:32:44;;;;;;;11.15;6.95;;;6.10;99.90;;;;;;5048982;28;20028;-83
2023/12/14 02:35:10;;;;;;;16.20;9.52;;;6.10;99.90;;;;;;5049652;28;20039;-82
2023/12/14 02:37:42;;;;;;;10.93;7.00;;;6.00;99.90;;;;;;5049594;28;20155;-82
2023/12/14 02:40:08;;;;;;;16.80;11.05;;;6.10;99.90;;;;;;5047521;28;20056;-82
2023/12/14 02:42:34;;;;;;;13.30;7.97;;;6.00;99.90;;;;;;5045270;28;20024;-82
2023/12/14 02:45:01;;;;;;;18.42;11.20;;;6.00;99.90;;;;;;5049731;28;20119;-83
2023/12/14 02:47:28;;;;;;;17.58;10.32;;;6.00;99.90;;;;;;5060616;28;20056;-82
2023/12/14 02:49:54;;;;;;;16.33;10.77;;;5.90;99.90;;;;;;5047142;28;20115;-82
2023/12/14 02:52:20;;;;;;;11.52;8.13;;;5.90;99.90;;;;;;5047747;28;20481;-82
2023/12/14 02:54:45;;;;;;;19.10;12.23;;;6.00;99.90;;;;;;5048273;28;20029;-82
2023/12/14 02:57:11;;;;;;;14.98;9.60;;;5.90;99.90;;;;;;5081820;28;20504;-83
2023/12/14 02:59:37;;;;;;;15.85;9.70;;;5.90;99.90;;;;;;5049929;28;20492;-82
2023/12/14 03:02:03;;;;;;;10.25;7.13;;;5.90;99.90;;;;;;5047562;28;20393;-83
2023/12/14 03:04:28;;;;;;;15.73;10.27;;;5.90;99.90;;;;;;5065359;28;20568;-83
2023/12/14 03:06:54;;;;;;;14.45;9.00;;;5.90;99.90;;;;;;5043369;28;20493;-83
2023/12/14 03:09:19;;;;;;;13.02;8.57;;;5.90;99.90;;;;;;5048146;28;20059;-84
2023/12/14 03:11:46;;;;;;;11.13;7.35;;;5.90;99.90;;;;;;5049831;28;20488;-83
2023/12/14 03:14:12;;;;;;;11.18;7.75;;;5.90;99.90;;;;;;5077493;28;20037;-83
2023/12/14 03:16:37;;;;;;;13.90;9.40;;;5.90;99.90;;;;;;5047197;28;20047;-83
2023/12/14 03:19:03;;;;;;;11.00;6.72;;;5.90;99.90;;;;;;5049599;28;20025;-82
2023/12/14 03:21:29;;;;;;;13.25;8.57;;;5.90;99.90;;;;;;5049379;28;20972;-84
2023/12/14 03:23:55;;;;;;;11.68;7.05;;;5.90;99.90;;;;;;5036848;28;20034;-83
2023/12/14 03:26:20;;;;;;;14.82;9.05;;;5.90;99.90;;;;;;5046140;28;20032;-83
2023/12/14 03:28:46;;;;;;;18.20;10.68;;;5.90;99.90;;;;;;5047576;28;20052;-84
2023/12/14 03:31:13;;;;;;;14.57;8.73;;;5.80;99.90;;;;;;5049201;28;20493;-83
2023/12/14 03:33:39;;;;;;;14.70;9.57;;;5.90;99.90;;;;;;5049463;28;20067;-84
2023/12/14 03:36:05;;;;;;;12.88;8.20;;;5.80;99.90;;;;;;5042701;28;20033;-83
2023/12/14 03:38:31;;;;;;;14.05;8.35;;;5.80;99.90;;;;;;5078964;28;20044;-84
2023/12/14 03:40:57;;;;;;;16.38;10.98;;;5.80;99.90;;;;;;5079728;28;20041;-83
2023/12/14 03:43:23;;;;;;;14.57;9.18;;;5.70;99.90;;;;;;5029882;28;20025;-83
2023/12/14 03:45:49;;;;;;;13.60;9.23;;;5.80;99.90;;;;;;5047795;28;20064;-84
2023/12/14 03:48:14;;;;;;;14.82;10.10;;;5.80;99.90;;;;;;5033774;28;20029;-83
2023/12/14 03:50:40;;;;;;;11.27;8.10;;;5.80;99.90;;;;;;5064429;28;20427;-84
2023/12/14 03:53:06;;;;;;;11.63;7.60;;;5.80;99.90;;;;;;5042996;28;20132;-83
2023/12/14 03:55:32;;;;;;;10.07;6.95;;;5.80;99.90;;;;;;5048351;28;20025;-83
2023/12/14 03:57:58;;;;;;;9.25;6.13;;;5.80;99.90;;;;;;5048926;28;20037;-83
2023/12/14 04:00:25;;;;;;;8.88;6.13;;;5.80;99.90;;;;;;5047603;28;20036;-84
2023/12/14 04:02:50;;;;;;;7.35;5.20;;;5.80;99.90;;;;;;5037007;28;20021;-84
2023/12/14 04:05:16;;;;;;;9.23;5.78;;;5.80;99.90;;;;;;5037604;28;20028;-84
2023/12/14 04:07:42;;;;;;;5.93;3.60;;;5.80;99.90;;;;;;5036931;28;20389;-84
2023/12/14 04:10:09;;;;;;;7.10;4.60;;;5.80;99.90;;;;;;5028220;28;20032;-85
2023/12/14 04:12:39;;;;;;;12.48;8.13;;;5.70;99.90;;;;;;5043262;28;20025;-83
2023/12/14 04:15:06;;;;;;;13.88;10.00;;;5.70;99.90;;;;;;5030638;28;20485;-82
2023/12/14 04:17:31;;;;;;;17.40;12.18;;;5.70;99.90;;;;;;5046720;28;20033;-82
2023/12/14 04:19:58;;;;;;;14.38;10.25;;;5.70;99.90;;;;;;5049655;28;20036;-83
2023/12/14 04:22:23;;;;;;;11.02;8.13;;;5.70;99.90;;;;;;5048421;28;20053;-83
2023/12/14 04:24:50;;;;;;;9.75;7.30;;;5.70;99.90;;;;;;5047688;28;20068;-83
2023/12/14 04:27:16;;;;;;;9.25;6.53;;;5.70;99.90;;;;;;5046848;28;20036;-83
2023/12/14 04:29:42;;;;;;;12.35;8.13;;;5.70;99.90;;;;;;5046602;28;20041;-83
2023/12/14 04:32:07;;;;;;;10.63;8.20;;;5.60;99.90;;;;;;5048138;28;20025;-83
2023/12/14 04:34:33;;;;;;;10.82;7.45;;;5.60;99.90;;;;;;5034405;28;20171;-83
2023/12/14 04:36:59;;;;;;;8.98;6.80;;;5.60;99.90;;;;;;5065165;28;20124;-84
2023/12/14 04:39:25;;;;;;;7.05;5.25;;;5.70;99.90;;;;;;5047993;28;20025;-83
2023/12/14 04:41:52;;;;;;;8.38;5.85;;;5.60;99.90;;;;;;5048735;28;20029;-83
2023/12/14 04:44:18;;;;;;;8.38;5.35;;;5.60;99.90;;;;;;5031442;28;20079;-83
2023/12/14 04:46:44;;;;;;;7.38;4.88;;;5.60;99.90;;;;;;5048140;28;20029;-83
2023/12/14 04:49:10;;;;;;;8.48;6.22;;;5.60;99.90;;;;;;5046846;28;20098;-84
2023/12/14 04:51:36;;;;;;;6.60;4.50;;;5.60;99.90;;;;;;5048027;28;20021;-84
2023/12/14 04:54:02;;;;;;;7.18;4.75;;;5.60;99.90;;;;;;5081260;28;20083;-84
2023/12/14 04:56:28;;;;;;;7.32;4.93;;;5.60;99.90;;;;;;5046850;28;20048;-84
2023/12/14 04:58:53;;;;;;;6.30;4.30;;;5.50;99.90;;;;;;5036666;28;20093;-84
2023/12/14 05:01:19;;;;;;;7.43;5.05;;;5.50;99.90;;;;;;5051995;28;20047;-83
2023/12/14 05:03:45;;;;;;;5.57;3.75;;;5.60;99.90;;;;;;5051574;28;20500;-83
2023/12/14 05:06:10;;;;;;;7.22;5.38;;;5.50;99.90;;;;;;5034494;28;20013;-84
2023/12/14 05:08:36;;;;;;;8.70;6.65;;;5.50;99.90;;;;;;5048776;28;20103;-84
2023/12/14 05:11:02;;;;;;;11.30;7.80;;;5.50;99.90;;;;;;5043103;28;20024;-83
2023/12/14 05:13:28;;;;;;;9.82;7.03;;;5.40;99.90;;;;;;5049714;28;20033;-83
2023/12/14 05:15:54;;;;;;;8.27;5.80;;;5.50;99.90;;;;;;5038200;28;20543;-84
2023/12/14 05:18:19;;;;;;;6.00;3.90;;;5.50;99.90;;;;;;5083604;28;20083;-84
2023/12/14 05:20:45;;;;;;;8.70;5.93;;;5.50;99.90;;;;;;5034108;28;20021;-84
2023/12/14 05:23:12;;;;;;;11.05;7.95;;;5.50;99.90;;;;;;5048881;28;20557;-84
2023/12/14 05:25:38;;;;;;;13.70;10.15;;;5.50;99.90;;;;;;5041748;28;20043;-83
2023/12/14 05:28:03;;;;;;;12.32;8.98;;;5.40;99.90;;;;;;5081393;28;20025;-84
2023/12/14 05:30:29;;;;;;;13.05;9.32;;;5.40;99.90;;;;;;5040686;28;20511;-84
2023/12/14 05:32:55;;;;;;;14.93;10.52;;;5.40;99.90;;;;;;5049454;28;20025;-83
2023/12/14 05:35:21;;;;;;;12.65;9.77;;;5.40;99.90;;;;;;5063896;28;20508;-84
2023/12/14 05:37:47;;;;;;;11.23;8.25;;;5.40;99.90;;;;;;5049915;28;20053;-83
2023/12/14 05:40:12;;;;;;;11.25;7.63;;;5.40;99.90;;;;;;5042731;28;20051;-84
2023/12/14 05:42:38;;;;;;;7.63;5.65;;;5.40;99.90;;;;;;5079084;28;20068;-83
2023/12/14 05:45:06;;;;;;;10.70;7.90;;;5.50;99.90;;;;;;5080383;28;20397;-84
2023/12/14 05:47:33;;;;;;;11.93;8.10;;;5.40;99.90;;;;;;5030743;28;20021;-84
2023/12/14 05:49:59;;;;;;;9.80;7.22;;;5.50;99.90;;;;;;5049048;28;20021;-84
2023/12/14 05:52:24;;;;;;;10.05;7.53;;;5.50;99.90;;;;;;5038135;28;20040;-84
2023/12/14 05:54:50;;;;;;;9.52;6.85;;;5.40;99.90;;;;;;5050096;28;20037;-83
2023/12/14 05:57:16;;;;;;;7.82;5.38;;;5.50;99.90;;;;;;5050738;28;20474;-83
2023/12/14 05:59:41;;;;;;;11.65;8.25;;;5.40;99.90;;;;;;5050010;28;20028;-83
2023/12/14 06:02:08;;;;;;;12.10;8.25;;;5.40;99.90;;;;;;5065962;28;20377;-83
2023/12/14 06:04:33;;;;;;;13.73;9.23;;;5.40;99.90;;;;;;5049891;28;20098;-83
2023/12/14 06:06:59;;;;;;;14.50;9.48;;;5.40;99.90;;;;;;5038966;28;20553;-83
2023/12/14 06:09:29;;;;;;;10.95;7.70;;;5.40;99.90;;;;;;5028465;28;20397;-84
2023/12/14 06:11:55;;;;;;;13.23;9.23;;;5.40;99.90;;;;;;5050446;28;20031;-83
2023/12/14 06:14:20;;;;;;;13.82;9.43;;;5.40;99.90;;;;;;5033733;28;20128;-84
2023/12/14 06:16:46;;;;;;;12.90;8.70;;;5.40;99.90;;;;;;5033136;28;20457;-83
2023/12/14 06:19:12;;;;;;;12.60;9.10;;;5.40;99.90;;;;;;5064566;28;20533;-84
2023/12/14 06:21:37;;;;;;;12.82;9.20;;;5.40;99.90;;;;;;5049669;28;20082;-83
2023/12/14 06:24:03;;;;;;;12.68;9.25;;;5.30;99.90;;;;;;5046768;28;20021;-84
2023/12/14 06:26:29;;;;;;;15.73;9.77;;;5.40;99.90;;;;;;5039252;28;20037;-83
2023/12/14 06:28:55;;;;;;;14.23;9.48;;;5.30;99.90;;;;;;5031653;28;20021;-84
2023/12/14 06:31:21;;;;;;;14.38;10.43;;;5.30;99.90;;;;;;5028236;28;20517;-84
2023/12/14 06:33:50;;;;;;;12.82;8.40;;;5.30;99.90;;;;;;5041751;28;20037;-83
2023/12/14 06:36:19;;;;;;;12.80;8.50;;;5.30;99.90;;;;;;5035316;28;20025;-84
2023/12/14 06:38:45;;;;;;;13.88;9.13;;;5.30;99.90;;;;;;5061607;28;20298;-84
2023/12/14 06:41:24;;;;;;;11.38;7.38;;;5.30;99.90;;;;;;5065568;28;20099;-83
2023/12/14 06:43:50;;;;;;;14.75;8.52;;;5.30;99.90;;;;;;5082961;28;20041;-84
2023/12/14 06:46:16;;;;;;;10.95;7.38;;;5.30;99.90;;;;;;5050390;28;20033;-84
2023/12/14 06:48:42;;;;;;;12.88;8.90;;;5.30;99.90;;;;;;5066225;28;20032;-84
2023/12/14 06:51:07;;;;;;;12.05;7.70;;;5.30;99.90;;;;;;5037385;28;20030;-83
2023/12/14 06:53:35;;;;;;;11.88;6.97;;;5.20;99.90;;;;;;5033609;28;20036;-83
2023/12/14 06:56:00;;;;;;;10.45;7.00;;;5.20;99.90;;;;;;5050086;28;20395;-84
2023/12/14 06:58:27;;;;;;;9.43;5.95;;;5.30;99.90;;;;;;5036577;28;20029;-84
2023/12/14 07:00:52;;;;;;;10.95;7.05;;;5.20;99.90;;;;;;5046000;28;20030;-83
2023/12/14 07:03:18;;;;;;;11.13;6.88;;;5.20;99.90;;;;;;5047001;28;20393;-84
2023/12/14 07:05:44;;;;;;;10.15;6.82;;;5.20;99.90;;;;;;5051183;28;20528;-83
2023/12/14 07:08:10;;;;;;;10.90;5.97;;;5.20;99.90;;;;;;5047984;28;20029;-84
2023/12/14 07:10:35;;;;;;;10.23;6.38;;;5.20;99.90;;;;;;5038132;28;20040;-84
2023/12/14 07:13:01;;;;;;;6.55;4.22;;;5.20;99.90;;;;;;5038450;28;20037;-84
2023/12/14 07:15:27;;;;;;;5.13;2.88;;;5.20;99.90;;;;;;5037752;28;20021;-85
2023/12/14 07:17:53;;;;;;;7.15;4.53;;;5.20;99.90;;;;;;5032464;28;20052;-84
2023/12/14 07:20:18;;;;;;;7.68;4.35;;;5.20;99.90;;;;;;5032692;28;20110;-84
2023/12/14 07:22:44;;;;;;;11.77;6.72;;;5.10;99.90;;;;;;5046578;28;20017;-84
2023/12/14 07:25:10;;;;;;;10.65;6.75;;;5.10;99.90;;;;;;5046521;28;20031;-85
2023/12/14 07:27:35;;;;;;;12.55;7.95;;;5.10;99.90;;;;;;5050695;28;20052;-84
2023/12/14 07:30:01;;;;;;;11.65;6.80;;;5.10;99.90;;;;;;5038767;28;20390;-84
2023/12/14 07:32:26;;;;;;;10.85;6.85;;;5.10;99.90;;;;;;5046242;28;20028;-84
2023/12/14 07:34:52;;;;;;;13.00;7.32;;;5.10;99.90;;;;;;5065006;28;20029;-84
2023/12/14 07:37:18;;;;;;;9.48;5.80;;;5.10;99.90;;;;;;5038624;28;20600;-83
2023/12/14 07:39:44;;;;;;;10.95;6.03;;;5.10;99.90;;;;;;5048954;28;20029;-82
2023/12/14 07:42:10;;;;;;;10.50;6.95;;;5.00;99.90;;;;;;5031525;28;20021;-84
2023/12/14 07:44:37;;;;;;;11.63;7.25;;;5.00;99.90;;;;;;5037883;28;20082;-84
2023/12/14 07:47:03;;;;;;;12.75;6.95;;;5.00;99.90;;;;;;5040178;28;20032;-83
2023/12/14 07:49:28;;;;;;;11.23;6.97;;;5.00;99.90;;;;;;5030966;28;20029;-84
2023/12/14 07:51:54;;;;;;;10.32;6.00;;;5.00;99.90;;;;;;5033940;28;20021;-84
2023/12/14 07:54:20;;;;;;;10.30;5.70;;;5.00;99.90;;;;;;5024651;28;20839;-85
2023/12/14 07:56:45;;;;;;;10.70;6.78;;;5.00;99.90;;;;;;5028894;28;20466;-83
2023/12/14 07:59:11;;;;;;;10.52;6.65;;;5.00;99.90;;;;;;5027308;28;20037;-83
2023/12/14 08:01:37;;;;;;;10.13;5.97;;;5.00;99.90;;;;;;5027772;28;20029;-82
2023/12/14 08:04:03;;;;;;;9.57;6.45;;;4.90;99.90;;;;;;5025364;28;20071;-83
2023/12/14 08:06:29;;;;;;;9.00;5.05;;;5.00;99.90;;;;;;5026481;28;20114;-83
2023/12/14 08:08:57;;;;;;;8.10;5.95;;;4.90;99.90;;;;;;5025831;28;20064;-83
2023/12/14 08:11:24;;;;;;;9.70;6.28;;;5.00;99.90;;;;;;5051456;28;20055;-83
2023/12/14 08:13:50;;;;;;;8.50;5.18;;;4.90;99.90;;;;;;5042276;28;20399;-83
2023/12/14 08:16:17;;;;;;;11.18;6.00;;;4.90;99.90;;;;;;5035149;28;20036;-83
2023/12/14 08:18:45;;;;;;;7.57;4.43;;;4.90;99.90;;;;;;5034910;28;20064;-84
2023/12/14 08:21:11;;;;;;;9.13;5.75;;;5.00;99.90;;;;;;5043687;28;20037;-83
2023/12/14 08:23:37;;;;;;;8.05;4.50;;;4.90;99.90;;;;;;5050504;28;20078;-84
2023/12/14 08:26:03;;;;;;;8.10;4.90;;;4.90;99.90;;;;;;5068877;28;20072;-83
2023/12/14 08:28:29;;;;;;;8.75;5.38;;;4.90;99.90;;;;;;5026939;28;20331;-83
2023/12/14 08:30:57;;;;;;;8.45;4.28;;;4.90;99.90;;;;;;5051400;28;20044;-83
2023/12/14 08:33:23;;;;;;;7.50;4.25;;;4.90;99.90;;;;;;5037299;28;20155;-84
2023/12/14 08:35:50;;;;;;;5.40;3.42;;;4.90;99.90;;;;;;5064297;28;20056;-83
2023/12/14 08:38:16;;;;;;;4.95;2.65;;;4.90;99.90;;;;;;5040742;28;20548;-84
2023/12/14 08:40:42;;;;;;;5.53;2.97;;;4.90;99.90;;;;;;5039573;28;20375;-85
2023/12/14 08:43:08;;;;;;;5.10;2.78;;;4.90;99.90;;;;;;5071705;28;20025;-83
2023/12/14 08:45:33;;;;;;;4.85;1.85;;;4.90;99.90;;;;;;5039282;28;20405;-84
2023/12/14 08:47:59;;;;;;;5.40;2.17;;;4.90;99.90;;;;;;5031580;28;20291;-84
2023/12/14 08:50:26;;;;;;;4.70;2.22;;;4.90;99.90;;;;;;5047187;28;20040;-83
2023/12/14 08:52:52;;;;;;;4.65;1.92;;;4.90;99.90;;;;;;5037787;28;20112;-83
2023/12/14 08:55:18;;;;;;;4.88;2.90;;;4.90;99.90;;;;;;5029997;28;20068;-85
2023/12/14 08:57:44;;;;;;;4.28;2.35;;;4.90;99.90;;;;;;5048064;28;20120;-84
2023/12/14 09:00:10;;;;;;;4.22;2.53;;;4.90;99.90;;;;;;5031235;28;20037;-84
2023/12/14 09:02:36;;;;;;;3.25;1.45;;;5.00;99.90;;;;;;5052117;28;20481;-83
2023/12/14 09:05:04;;;;;;;5.75;2.28;;;4.90;99.90;;;;;;5033557;28;20032;-84
2023/12/14 09:07:30;;;;;;;4.63;3.28;;;4.90;99.90;;;;;;5045853;28;20032;-84
2023/12/14 09:09:56;;;;;;;3.75;1.88;;;4.90;99.90;;;;;;5051498;28;20542;-83
2023/12/14 09:12:21;;;;;;;6.55;3.10;;;4.90;99.90;;;;;;5034540;28;20028;-84
2023/12/14 09:14:47;;;;;;;4.40;2.08;;;4.90;99.90;;;;;;5033297;28;20040;-83
2023/12/14 09:17:13;;;;;;;4.45;2.22;;;4.90;99.90;;;;;;5050669;28;20057;-83
2023/12/14 09:19:39;;;;;;;5.88;2.88;;;4.90;99.90;;;;;;5051419;28;20063;-84
2023/12/14 09:22:04;;;;;;;5.68;3.28;;;4.90;99.90;;;;;;5033913;28;20032;-84
2023/12/14 09:24:30;;;;;;;6.13;3.83;;;4.90;99.90;;;;;;5047276;28;20489;-84
2023/12/14 09:26:56;;;;;;;6.85;3.78;;;5.00;99.90;;;;;;5032412;28;20170;-84
2023/12/14 09:29:21;;;;;;;5.20;3.35;;;5.00;99.90;;;;;;5034378;28;20021;-84
2023/12/14 09:31:48;;;;;;;5.53;2.55;;;4.90;99.90;;;;;;5033243;28;20041;-84
2023/12/14 09:34:14;;;;;;;6.57;4.50;;;4.90;99.90;;;;;;5032340;28;20037;-84
2023/12/14 09:36:40;;;;;;;7.13;4.63;;;4.90;99.90;;;;;;5027846;28;20488;-84
2023/12/14 09:39:10;;;;;;;7.00;3.97;;;4.90;99.90;;;;;;5082903;28;20025;-84
2023/12/14 09:41:36;;;;;;;;;;;4.90;99.90;;;;;;5035183;28;20051;-84
2023/12/14 09:44:03;;;;;;;4.78;2.55;;;4.90;99.90;;;;;;5064399;28;19909;-84
2023/12/14 09:46:30;;;;;;;4.88;2.65;;;4.90;99.90;;;;;;5033858;28;20078;-84
2023/12/14 09:48:57;;;;;;;5.65;3.33;;;4.90;99.90;;;;;;5082022;28;20029;-84
2023/12/14 09:51:23;;;;;;;7.20;3.90;;;4.90;99.90;;;;;;5039437;28;20025;-84
2023/12/14 09:53:50;;;;;;;5.28;2.63;;;4.90;99.90;;;;;;5051020;28;20033;-85
2023/12/14 09:56:16;;;;;;;5.15;2.33;;;4.90;99.90;;;;;;5040397;28;20025;-85
2023/12/14 09:58:42;;;;;;;4.78;1.95;;;4.90;99.90;;;;;;5051934;28;20063;-84
2023/12/14 10:01:24;;;;;;;2.65;1.10;;;5.00;99.90;;;;;;5066613;28;20040;-85
2023/12/14 10:04:06;;;;;;;5.40;3.33;;;5.00;99.90;;;;;;5036873;28;20025;-85
2023/12/14 10:06:32;;;;;;;6.70;3.25;;;5.00;99.90;;;;;;5050162;28;20035;-84
2023/12/14 10:08:58;;;;;;;5.97;3.63;;;5.00;99.90;;;;;;5064343;28;20237;-86
2023/12/14 10:11:24;;;;;;;7.60;4.90;;;5.00;99.90;;;;;;5050737;28;20014;-86
2023/12/14 10:13:49;;;;;;;6.50;3.97;;;4.90;99.90;;;;;;5035122;28;20539;-84
2023/12/14 10:16:32;;;;;;;5.35;3.10;;;5.00;99.90;;;;;;5032797;28;20063;-85
2023/12/14 10:18:59;;;;;;;7.03;3.85;;;5.00;99.90;;;;;;5033884;28;20025;-85
2023/12/14 10:21:27;;;;;;;6.65;4.05;;;5.00;99.90;;;;;;5033218;28;20021;-85
2023/12/14 10:23:56;;;;;;;9.82;5.03;;;5.00;99.90;;;;;;5083511;28;20029;-84
2023/12/14 10:26:25;;;;;;;5.93;3.78;;;4.90;99.90;;;;;;5033559;28;20516;-85
2023/12/14 10:28:52;;;;;;;5.82;4.25;;;4.90;99.90;;;;;;5036322;28;20052;-85
2023/12/14 10:31:21;;;;;;;8.57;5.22;;;4.90;99.90;;;;;;5032437;28;20529;-85
2023/12/14 10:33:47;;;;;;;9.55;6.45;;;4.90;99.90;;;;;;5050314;28;20123;-84
2023/12/14 10:36:22;;;;;;;14.23;7.32;;;4.90;99.90;;;;;;5048644;28;20033;-85
2023/12/14 10:38:52;;;;;;;10.25;6.30;;;4.90;99.90;;;;;;5035578;28;20084;-83
2023/12/14 10:41:18;;;;;;;11.52;6.80;;;4.90;99.90;;;;;;5046143;28;20014;-84
2023/12/14 10:43:47;;;;;;;9.43;5.38;;;4.90;99.90;;;;;;5040902;28;20040;-85
2023/12/14 10:46:14;;;;;;;8.95;5.68;;;4.90;99.90;;;;;;5037553;28;20016;-84
2023/12/14 10:48:43;;;;;;;8.82;5.57;;;4.90;99.90;;;;;;5048734;28;20060;-83
2023/12/14 10:51:11;;;;;;;7.25;4.20;;;4.90;99.90;;;;;;5064576;28;20599;-84
2023/12/14 10:53:37;;;;;;;7.30;4.10;;;4.90;99.90;;;;;;5047099;28;20037;-84
2023/12/14 10:56:09;;;;;;;7.82;4.63;;;5.00;99.90;;;;;;5034685;28;20029;-83
2023/12/14 10:58:54;;;;;;;7.65;5.07;;;5.00;99.90;;;;;;5035790;28;20033;-83
2023/12/14 11:01:24;;;;;;;9.23;5.10;;;5.00;99.90;;;;;;5046082;28;20082;-84
2023/12/14 11:03:53;;;;;;;8.82;5.40;;;5.00;99.90;;;;;;5064561;28;20074;-84
2023/12/14 11:06:33;;;;;;;9.02;5.80;;;5.00;99.90;;;;;;5029216;28;20112;-83
2023/12/14 11:09:09;;;;;;;10.73;6.97;;;5.00;99.90;;;;;;5048195;28;20032;-84
2023/12/14 11:11:59;;;;;;;9.30;4.90;;;5.00;99.90;;;;;;5037485;28;20424;-84
2023/12/14 11:14:26;;;;;;;10.18;6.05;;;5.10;99.90;;;;;;5029173;28;20045;-84
2023/12/14 11:16:56;;;;;;;9.07;4.05;;;5.00;99.90;;;;;;5048277;28;20036;-84
2023/12/14 11:19:21;;;;;;;11.35;5.97;;;5.10;99.90;;;;;;5034657;28;20409;-84
2023/12/14 11:21:55;;;;;;;7.60;5.20;;;5.10;99.90;;;;;;5037401;28;20032;-84
2023/12/14 11:24:21;;;;;;;7.15;4.38;;;5.10;99.90;;;;;;5051694;28;20420;-84
2023/12/14 11:26:49;;;;;;;4.88;2.92;;;5.20;99.90;;;;;;5064704;28;20029;-84
2023/12/14 11:29:16;;;;;;;4.90;2.97;;;5.20;99.90;;;;;;5081964;28;20029;-84
2023/12/14 11:31:42;;;;;;;4.75;2.63;;;5.20;99.90;;;;;;5035815;28;20055;-84
2023/12/14 11:34:07;;;;;;;4.93;3.25;;;5.20;99.90;;;;;;5027834;28;20025;-84
2023/12/14 11:36:33;;;;;;;4.80;2.78;;;5.20;99.90;;;;;;5031793;28;20025;-83
2023/12/14 11:38:59;;;;;;;5.82;3.13;;;5.20;99.90;;;;;;5033731;28;20111;-84
2023/12/14 11:41:25;;;;;;;7.55;5.22;;;5.30;99.90;;;;;;5062197;28;20025;-85
2023/12/14 11:43:51;;;;;;;6.00;3.75;;;5.20;99.90;;;;;;5062964;28;20549;-85
2023/12/14 11:46:18;;;;;;;6.50;4.25;;;5.20;99.90;;;;;;5031201;28;20017;-84
2023/12/14 11:48:45;;;;;;;8.50;5.30;;;5.10;99.90;;;;;;5034943;28;20032;-86
2023/12/14 11:51:12;;;;;;;8.43;3.70;;;5.20;99.90;;;;;;5030004;28;20127;-85
2023/12/14 11:53:42;;;;;;;5.88;4.07;;;5.20;99.90;;;;;;5079752;28;20040;-85
2023/12/14 11:56:09;;;;;;;8.88;4.85;;;5.20;99.90;;;;;;5056757;28;20550;-84
2023/12/14 11:58:34;;;;;;;9.38;5.47;;;5.20;99.90;;;;;;5061833;28;20599;-84
2023/12/14 12:01:28;;;;;;;10.45;6.45;;;5.10;99.90;;;;;;5078859;28;20029;-84
2023/12/14 12:03:53;;;;;;;8.45;5.30;;;5.20;99.90;;;;;;5061624;28;20021;-84
2023/12/14 12:06:21;;;;;;;14.23;7.00;;;5.20;99.90;;;;;;5030176;28;20017;-84
2023/12/14 12:08:47;;;;;;;11.05;6.03;;;5.20;99.90;;;;;;5078360;28;20029;-84
2023/12/14 12:11:17;;;;;;;8.30;5.10;;;5.20;99.90;;;;;;5044927;28;20024;-84
2023/12/14 12:13:43;;;;;;;8.07;4.68;;;5.20;99.90;;;;;;5062261;28;20060;-85
2023/12/14 12:16:08;;;;;;;7.50;4.32;;;5.20;99.90;;;;;;5046054;28;20090;-84
2023/12/14 12:18:34;;;;;;;9.00;5.53;;;5.20;99.90;;;;;;5061618;28;20120;-86
2023/12/14 12:21:03;;;;;;;9.57;4.63;;;5.20;99.90;;;;;;5062516;28;20029;-84
2023/12/14 12:23:29;;;;;;;11.18;5.53;;;5.20;99.90;;;;;;5076739;28;20017;-85
2023/12/14 12:25:55;;;;;;;8.43;5.20;;;5.20;99.90;;;;;;5062690;28;20370;-84
2023/12/14 12:28:21;;;;;;;8.05;4.20;;;5.20;99.90;;;;;;5046795;28;20021;-84
2023/12/14 12:30:47;;;;;;;5.75;4.00;;;5.30;99.90;;;;;;5059612;28;20061;-85
2023/12/14 12:33:13;;;;;;;5.30;2.83;;;5.30;99.90;;;;;;5062104;28;20469;-84
2023/12/14 12:35:39;;;;;;;3.70;2.10;;;5.30;99.90;;;;;;5061999;28;20082;-85
2023/12/14 12:38:05;;;;;;;5.38;2.80;;;5.40;99.90;;;;;;5062164;28;20029;-84
2023/12/14 12:40:33;;;;;;;8.45;4.40;;;5.40;99.90;;;;;;5079198;28;20051;-86
2023/12/14 12:42:59;;;;;;;7.82;4.60;;;5.30;99.90;;;;;;5043239;28;20027;-85
2023/12/14 12:45:27;;;;;;;7.30;4.65;;;5.30;99.90;;;;;;5021717;28;20033;-85
2023/12/14 12:47:53;;;;;;;7.88;5.25;;;5.30;99.90;;;;;;5017587;28;20041;-84